Time;durP1;ratioP1;P1;durP2;ratioP2;P2;SDS_P1;SDS_P2;PMS_P1;PMS_P2;Temp;Humidity;BMP_temperature;BMP_pressure;BME280_temperature;BME280_humidity;BME280_pressure;Samples;Min_cycle;Max_cycle;Signal;HPM_P1;HPM_P2
2022/08/04 00:01:11;;;;;;;;;;;18.60;99.90;;;;;;5060174;28;19916;-68
2022/08/04 00:03:42;;;;;;;;;;;18.50;99.90;;;;;;5074616;28;19919;-67
2022/08/04 00:06:15;;;;;;;;;;;18.50;99.90;;;;;;5068939;28;19952;-69
2022/08/04 00:08:41;;;;;;;;;;;18.50;99.90;;;;;;5072199;28;19912;-67
2022/08/04 00:11:07;;;;;;;;;;;18.60;99.90;;;;;;5070117;28;20278;-68
2022/08/04 00:13:36;;;;;;;;;;;18.60;99.90;;;;;;5069978;28;19919;-67
2022/08/04 00:16:03;;;;;;;;;;;18.50;99.90;;;;;;5072403;28;19920;-69
2022/08/04 00:18:33;;;;;;;;;;;18.40;99.90;;;;;;5070300;28;20014;-68
2022/08/04 00:20:59;;;;;;;;;;;18.30;99.90;;;;;;5071018;28;19913;-68
2022/08/04 00:23:28;;;;;;;;;;;18.30;99.90;;;;;;5067870;28;19921;-68
2022/08/04 00:25:54;;;;;;;;;;;18.40;99.90;;;;;;5066931;28;19920;-67
2022/08/04 00:28:20;;;;;;;;;;;18.30;99.90;;;;;;5071283;28;19919;-68
2022/08/04 00:30:46;;;;;;;;;;;18.40;99.90;;;;;;5076688;28;19935;-68
2022/08/04 00:33:17;;;;;;;;;;;18.40;99.90;;;;;;5068285;28;19919;-68
2022/08/04 00:35:43;;;;;;;;;;;18.40;99.90;;;;;;5093029;28;20808;-68
2022/08/04 00:38:09;;;;;;;;;;;18.30;99.90;;;;;;5090921;28;20003;-67
2022/08/04 00:40:34;;;;;;;;;;;18.40;99.90;;;;;;5094590;28;19999;-68
2022/08/04 00:43:00;;;;;;;;;;;18.30;99.90;;;;;;5094978;28;20269;-68
2022/08/04 00:45:46;;;;;;;;;;;18.20;99.90;;;;;;5086944;28;19916;-68
2022/08/04 00:48:19;;;;;;;;;;;18.30;99.90;;;;;;5091901;28;19920;-68
2022/08/04 00:50:48;;;;;;;;;;;18.20;99.90;;;;;;5095183;28;19972;-68
2022/08/04 00:53:32;;;;;;;;;;;18.20;99.90;;;;;;5105146;28;19912;-67
2022/08/04 00:56:06;;;;;;;;;;;18.20;99.90;;;;;;5094784;28;20424;-68
2022/08/04 00:58:50;;;;;;;;;;;18.20;99.90;;;;;;5075025;28;20007;-68
2022/08/04 01:01:34;;;;;;;;;;;18.20;99.90;;;;;;5080687;28;19967;-67
2022/08/04 01:04:09;;;;;;;;;;;18.10;99.90;;;;;;5098508;28;19912;-68
2022/08/04 01:06:37;;;;;;;;;;;18.10;99.90;;;;;;5096741;28;20366;-68
2022/08/04 01:09:35;;;;;;;;;;;18.10;99.90;;;;;;5089635;28;20595;-68
2022/08/04 01:12:04;;;;;;;;;;;18.00;99.90;;;;;;5046166;28;20392;-68
2022/08/04 01:14:35;;;;;;;;;;;17.90;99.90;;;;;;5099656;28;19948;-68
2022/08/04 01:17:18;;;;;;;;;;;18.00;99.90;;;;;;5100682;28;19916;-68
2022/08/04 01:19:57;;;;;;;;;;;17.90;99.90;;;;;;5095310;28;20090;-68
2022/08/04 01:22:25;;;;;;;;;;;17.90;99.90;;;;;;5095560;28;20392;-67
2022/08/04 01:24:51;;;;;;;;;;;17.90;99.90;;;;;;5089818;28;20026;-68
2022/08/04 01:27:32;;;;;;;;;;;18.00;99.90;;;;;;5102486;28;20409;-66
2022/08/04 01:29:58;;;;;;;;;;;18.00;99.90;;;;;;5093522;28;19988;-68
2022/08/04 01:32:35;;;;;;;;;;;17.90;99.90;;;;;;5092307;28;20403;-67
2022/08/04 01:35:06;;;;;;;;;;;18.00;99.90;;;;;;5091603;28;19993;-68
2022/08/04 01:37:50;;;;;;;;;;;18.00;99.90;;;;;;5096713;28;19951;-66
2022/08/04 01:40:16;;;;;;;;;;;18.00;99.90;;;;;;5075937;28;19912;-67
2022/08/04 01:42:44;;;;;;;;;;;17.80;99.90;;;;;;5093545;28;19912;-68
2022/08/04 01:45:11;;;;;;;;;;;17.80;99.90;;;;;;5096373;28;19912;-68
2022/08/04 01:47:39;;;;;;;;;;;17.70;99.90;;;;;;5087946;28;20332;-67
2022/08/04 01:50:08;;;;;;;;;;;17.70;99.90;;;;;;5091898;28;19916;-67
2022/08/04 01:52:35;;;;;;;;;;;17.60;99.90;;;;;;5085282;28;19966;-67
2022/08/04 01:55:03;;;;;;;;;;;17.40;99.90;;;;;;5073432;28;19923;-67
2022/08/04 01:57:28;;;;;;;;;;;17.30;99.90;;;;;;5089491;28;19920;-68
2022/08/04 01:59:56;;;;;;;;;;;17.20;99.90;;;;;;5074954;28;19919;-67
2022/08/04 02:02:23;;;;;;;;;;;17.10;99.90;;;;;;5096775;28;19953;-67
2022/08/04 02:04:48;;;;;;;;;;;17.10;99.90;;;;;;5077769;28;19960;-67
2022/08/04 02:07:32;;;;;;;;;;;17.10;99.90;;;;;;5099363;28;19946;-68
2022/08/04 02:10:05;;;;;;;;;;;17.00;99.90;;;;;;5085522;28;20007;-67
2022/08/04 02:12:33;;;;;;;;;;;17.00;99.90;;;;;;5094053;28;19954;-68
2022/08/04 02:15:02;;;;;;;;;;;16.90;99.90;;;;;;5094163;28;19924;-67
2022/08/04 02:17:38;;;;;;;;;;;16.90;99.90;;;;;;5100887;28;19911;-66
2022/08/04 02:20:08;;;;;;;;;;;17.00;99.90;;;;;;5097588;28;19916;-68
2022/08/04 02:22:38;;;;;;;;;;;17.00;99.90;;;;;;5099869;28;19912;-67
2022/08/04 02:25:05;;;;;;;;;;;16.90;99.90;;;;;;5094090;28;20008;-67
2022/08/04 02:27:34;;;;;;;;;;;16.80;99.90;;;;;;5099033;28;20377;-67
2022/08/04 02:30:03;;;;;;;;;;;16.80;99.90;;;;;;5071592;28;19943;-69
2022/08/04 02:32:32;;;;;;;;;;;16.70;99.90;;;;;;5091711;28;19926;-68
2022/08/04 02:35:20;;;;;;;;;;;16.60;99.90;;;;;;5089117;28;20006;-67
2022/08/04 02:37:47;;;;;;;;;;;16.60;99.90;;;;;;5094849;28;19976;-68
2022/08/04 02:40:17;;;;;;;;;;;16.60;99.90;;;;;;5092935;28;19912;-68
2022/08/04 02:42:44;;;;;;;;;;;16.50;99.90;;;;;;5089669;28;19931;-68
2022/08/04 02:45:10;;;;;;;;;;;16.50;99.90;;;;;;5073180;28;20285;-67
2022/08/04 02:47:36;;;;;;;;;;;16.50;99.90;;;;;;5075021;28;19990;-67
2022/08/04 02:50:05;;;;;;;;;;;16.50;99.90;;;;;;5092131;28;20402;-67
2022/08/04 02:52:31;;;;;;;;;;;16.50;99.90;;;;;;5096246;28;19920;-67
2022/08/04 02:55:01;;;;;;;;;;;16.40;99.90;;;;;;5092482;28;20370;-68
2022/08/04 02:57:29;;;;;;;;;;;16.40;99.90;;;;;;5098303;28;19912;-67
2022/08/04 03:00:04;;;;;;;;;;;16.60;99.90;;;;;;5089962;28;19916;-68
2022/08/04 03:02:41;;;;;;;;;;;16.90;99.90;;;;;;5090821;28;19939;-68
2022/08/04 03:05:11;;;;;;;;;;;17.10;99.90;;;;;;5089541;28;19912;-68
2022/08/04 03:07:52;;;;;;;;;;;17.20;99.90;;;;;;5066933;28;19924;-67
2022/08/04 03:10:36;;;;;;;;;;;17.10;99.90;;;;;;5092601;28;20913;-67
2022/08/04 03:13:20;;;;;;;;;;;16.90;99.90;;;;;;5082679;28;19969;-67
2022/08/04 03:15:53;;;;;;;;;;;16.70;99.90;;;;;;5089549;28;20382;-67
2022/08/04 03:18:28;;;;;;;;;;;16.70;99.90;;;;;;5071959;28;19964;-68
2022/08/04 03:20:56;;;;;;;;;;;16.60;99.90;;;;;;5085599;28;19920;-67
2022/08/04 03:23:40;;;;;;;;;;;16.50;99.90;;;;;;5086082;28;19912;-66
2022/08/04 03:26:24;;;;;;;;;;;16.30;99.90;;;;;;5089641;28;19911;-67
2022/08/04 03:28:50;;;;;;;;;;;16.30;99.90;;;;;;5082785;28;20458;-68
2022/08/04 03:31:34;;;;;;;;;;;16.20;99.90;;;;;;5089247;28;19920;-68
2022/08/04 03:34:17;;;;;;;;;;;16.20;99.90;;;;;;5085812;28;20444;-68
2022/08/04 03:36:53;;;;;;;;;;;16.20;99.90;;;;;;5092108;28;20423;-68
2022/08/04 03:39:22;;;;;;;;;;;16.20;99.90;;;;;;5083086;28;19916;-68
2022/08/04 03:42:01;;;;;;;;;;;16.20;99.90;;;;;;5090902;28;20163;-67
2022/08/04 03:44:35;;;;;;;;;;;16.30;99.90;;;;;;5074951;28;19912;-67
2022/08/04 03:47:10;;;;;;;;;;;16.20;99.90;;;;;;5086325;28;19912;-67
2022/08/04 03:49:39;;;;;;;;;;;16.20;99.90;;;;;;5074181;28;19961;-68
2022/08/04 03:55:22;;;;;;;;;;;16.40;99.90;;;;;;5095412;28;19927;-68
2022/08/04 03:57:48;;;;;;;;;;;16.60;99.90;;;;;;5100014;28;19912;-68
2022/08/04 04:00:17;;;;;;;;;;;16.70;99.90;;;;;;5074355;28;19919;-67
2022/08/04 04:02:46;;;;;;;;;;;16.70;99.90;;;;;;5102498;28;19970;-68
2022/08/04 04:05:30;;;;;;;;;;;16.80;99.90;;;;;;5077742;28;20275;-67
2022/08/04 04:08:23;;;;;;;;;;;16.60;99.90;;;;;;5077640;28;19912;-68
2022/08/04 04:11:06;;;;;;;;;;;16.50;99.90;;;;;;5098214;28;19915;-68
2022/08/04 04:13:47;;;;;;;;;;;16.40;99.90;;;;;;5093369;28;19966;-68
2022/08/04 04:16:18;;;;;;;;;;;16.50;99.90;;;;;;5091301;28;19920;-68
2022/08/04 04:18:47;;;;;;;;;;;16.50;99.90;;;;;;5090217;28;19919;-68
2022/08/04 04:21:39;;;;;;;;;;;16.50;99.90;;;;;;5076783;28;19916;-68
2022/08/04 04:24:07;;;;;;;;;;;16.40;99.90;;;;;;5033721;28;19920;-68
2022/08/04 04:26:36;;;;;;;;;;;16.40;99.90;;;;;;5072118;28;19926;-67
2022/08/04 04:29:05;;;;;;;;;;;16.40;99.90;;;;;;5093895;28;19998;-67
2022/08/04 04:31:42;;;;;;;;;;;16.40;99.90;;;;;;5085955;28;20079;-68
2022/08/04 04:34:27;;;;;;;;;;;16.50;99.90;;;;;;5085197;28;20285;-67
2022/08/04 04:36:52;;;;;;;;;;;16.60;99.90;;;;;;5103884;28;20022;-67
2022/08/04 04:39:29;;;;;;;;;;;16.60;99.90;;;;;;5097668;28;19995;-67
2022/08/04 04:42:06;;;;;;;;;;;16.50;99.90;;;;;;5083687;28;19922;-68
2022/08/04 04:44:50;;;;;;;;;;;16.50;99.90;;;;;;5095031;28;19919;-68
2022/08/04 04:47:31;;;;;;;;;;;16.60;99.90;;;;;;5099493;28;19927;-68
2022/08/04 04:50:29;;;;;;;;;;;16.70;99.90;;;;;;5095272;28;19916;-68
2022/08/04 04:53:06;;;;;;;;;;;16.80;99.90;;;;;;5052729;28;20290;-67
2022/08/04 04:55:41;;;;;;;;;;;16.70;99.90;;;;;;5080592;28;19959;-66
2022/08/04 04:58:07;;;;;;;;;;;16.80;99.90;;;;;;5086637;28;19916;-68
2022/08/04 05:00:53;;;;;;;;;;;16.80;99.90;;;;;;5089349;28;20338;-67
2022/08/04 05:03:25;;;;;;;;;;;16.90;99.90;;;;;;5097771;28;19915;-67
2022/08/04 05:05:56;;;;;;;;;;;16.90;99.90;;;;;;5095276;28;19956;-68
2022/08/04 05:08:28;;;;;;;;;;;17.00;99.90;;;;;;5096865;28;19911;-67
2022/08/04 05:11:08;;;;;;;;;;;16.80;99.90;;;;;;5093601;28;19957;-68
2022/08/04 05:13:34;;;;;;;;;;;16.60;99.90;;;;;;5095228;28;19923;-68
2022/08/04 05:16:14;;;;;;;;;;;16.60;99.90;;;;;;5096048;28;20040;-68
2022/08/04 05:18:41;;;;;;;;;;;16.60;99.90;;;;;;5098971;28;19923;-68
2022/08/04 05:21:18;;;;;;;;;;;16.50;99.90;;;;;;5089209;28;19916;-68
2022/08/04 05:23:47;;;;;;;;;;;16.50;99.90;;;;;;5094492;28;20444;-67
2022/08/04 05:26:15;;;;;;;;;;;16.40;99.90;;;;;;5077035;28;19935;-67
2022/08/04 05:28:44;;;;;;;;;;;16.30;99.90;;;;;;5092926;28;20014;-68
2022/08/04 05:31:14;;;;;;;;;;;16.40;99.90;;;;;;5084667;28;21169;-67
2022/08/04 05:33:47;;;;;;;;;;;16.30;99.90;;;;;;5085417;28;19920;-68
2022/08/04 05:36:15;;;;;;;;;;;16.20;99.90;;;;;;5080408;28;19912;-69
2022/08/04 05:38:42;;;;;;;;;;;16.30;99.90;;;;;;5078538;28;19920;-68
2022/08/04 05:41:09;;;;;;;;;;;16.60;99.90;;;;;;5093801;28;19923;-70
2022/08/04 05:43:36;;;;;;;;;;;16.70;99.90;;;;;;5091976;28;19951;-69
2022/08/04 05:46:03;;;;;;;;;;;16.90;99.90;;;;;;5101197;28;19962;-69
2022/08/04 05:48:31;;;;;;;;;;;17.00;99.90;;;;;;5080208;28;19915;-69
2022/08/04 05:50:57;;;;;;;;;;;17.00;99.90;;;;;;5097646;28;19923;-70
2022/08/04 05:53:23;;;;;;;;;;;17.00;99.90;;;;;;5093576;28;19912;-68
2022/08/04 05:55:49;;;;;;;;;;;17.00;99.90;;;;;;5093618;28;20400;-68
2022/08/04 05:58:15;;;;;;;;;;;17.00;99.90;;;;;;5093651;28;19978;-67
2022/08/04 06:00:41;;;;;;;;;;;17.10;99.90;;;;;;5073301;28;20337;-66
2022/08/04 06:03:08;;;;;;;;;;;17.10;99.90;;;;;;5088786;28;19934;-67
2022/08/04 06:05:34;;;;;;;;;;;17.20;99.90;;;;;;5094056;28;20015;-66
2022/08/04 06:07:59;;;;;;;;;;;17.30;99.90;;;;;;5076722;28;20030;-66
2022/08/04 06:10:25;;;;;;;;;;;17.30;99.90;;;;;;5099533;28;20324;-67
2022/08/04 06:12:54;;;;;;;;;;;17.30;99.90;;;;;;5093494;28;19919;-66
2022/08/04 06:15:20;;;;;;;;;;;17.40;99.90;;;;;;5092352;28;19920;-67
2022/08/04 06:17:52;;;;;;;;;;;17.50;99.90;;;;;;5095085;28;19919;-66
2022/08/04 06:20:18;;;;;;;;;;;17.50;99.90;;;;;;5085732;28;19919;-67
2022/08/04 06:22:45;;;;;;;;;;;17.70;99.90;;;;;;5069377;28;20038;-67
2022/08/04 06:25:12;;;;;;;;;;;17.80;99.90;;;;;;5082533;28;19912;-67
2022/08/04 06:27:39;;;;;;;;;;;17.80;99.90;;;;;;5088011;28;19916;-67
2022/08/04 06:30:08;;;;;;;;;;;17.80;99.90;;;;;;5092673;28;20010;-67
2022/08/04 06:32:37;;;;;;;;;;;17.90;99.90;;;;;;5072481;28;19965;-67
2022/08/04 06:35:04;;;;;;;;;;;17.90;99.90;;;;;;5083240;28;20003;-67
2022/08/04 06:37:31;;;;;;;;;;;17.90;99.90;;;;;;5072698;28;19920;-66
2022/08/04 06:39:57;;;;;;;;;;;17.90;99.90;;;;;;5051463;28;20288;-66
2022/08/04 06:42:23;;;;;;;;;;;18.00;99.90;;;;;;5071886;28;19959;-67
2022/08/04 06:44:51;;;;;;;;;;;18.00;99.90;;;;;;5071231;28;19943;-67
2022/08/04 06:47:18;;;;;;;;;;;18.20;99.90;;;;;;5072716;28;19912;-66
2022/08/04 06:49:45;;;;;;;;;;;18.30;99.90;;;;;;5071664;28;19980;-68
2022/08/04 06:52:16;;;;;;;;;;;18.50;99.90;;;;;;5035131;28;19920;-68
2022/08/04 06:54:49;;;;;;;;;;;18.40;99.90;;;;;;5068318;28;20345;-68
2022/08/04 06:57:16;;;;;;;;;;;18.70;99.90;;;;;;5071040;28;20324;-67
2022/08/04 06:59:47;;;;;;;;;;;18.90;99.90;;;;;;5071375;28;19916;-67
2022/08/04 07:02:14;;;;;;;;;;;19.00;99.90;;;;;;5051147;28;20019;-68
2022/08/04 07:04:41;;;;;;;;;;;19.00;99.90;;;;;;5072681;28;19912;-66
2022/08/04 07:07:06;;;;;;;;;;;18.90;99.90;;;;;;5073591;28;19916;-67
2022/08/04 07:09:32;;;;;;;;;;;18.90;99.90;;;;;;5071725;28;20425;-67
2022/08/04 07:11:58;;;;;;;;;;;19.00;99.90;;;;;;5072501;28;19940;-67
2022/08/04 07:14:25;;;;;;;;;;;19.20;99.90;;;;;;5081475;28;20439;-67
2022/08/04 07:16:52;;;;;;;;;;;19.20;99.90;;;;;;5078463;28;19950;-67
2022/08/04 07:19:18;;;;;;;;;;;19.10;99.90;;;;;;5070176;28;19926;-67
2022/08/04 07:21:43;;;;;;;;;;;19.00;99.90;;;;;;5080836;28;19912;-67
2022/08/04 07:24:09;;;;;;;;;;;19.00;99.90;;;;;;5068631;28;20351;-67
2022/08/04 07:26:35;;;;;;;;;;;18.80;99.90;;;;;;5074141;28;19918;-68
2022/08/04 07:29:01;;;;;;;;;;;18.80;99.90;;;;;;5071039;28;19917;-68
2022/08/04 07:31:26;;;;;;;;;;;18.80;99.90;;;;;;5071825;28;19916;-67
2022/08/04 07:33:53;;;;;;;;;;;18.90;99.90;;;;;;5075993;28;19919;-68
2022/08/04 07:36:18;;;;;;;;;;;18.90;99.90;;;;;;5075214;28;19927;-68
2022/08/04 07:38:44;;;;;;;;;;;19.00;99.90;;;;;;5058713;28;20378;-68
2022/08/04 07:41:09;;;;;;;;;;;19.00;99.90;;;;;;5073148;28;19967;-68
2022/08/04 07:43:36;;;;;;;;;;;19.00;99.90;;;;;;5073033;28;19912;-69
2022/08/04 07:46:02;;;;;;;;;;;19.20;99.90;;;;;;5078301;28;20000;-69
2022/08/04 07:48:28;;;;;;;;;;;19.20;99.90;;;;;;5066733;28;20011;-68
2022/08/04 07:50:54;;;;;;;;;;;19.20;99.90;;;;;;5066110;28;20354;-68
2022/08/04 07:53:20;;;;;;;;;;;19.20;99.90;;;;;;5075642;28;19954;-68
2022/08/04 07:55:46;;;;;;;;;;;19.10;99.90;;;;;;5074188;28;19916;-68
2022/08/04 07:58:11;;;;;;;;;;;19.00;99.90;;;;;;5082121;28;20456;-68
2022/08/04 08:00:37;;;;;;;;;;;19.00;99.90;;;;;;5078471;28;19916;-67
2022/08/04 08:03:03;;;;;;;;;;;19.10;99.90;;;;;;5074986;28;19963;-67
2022/08/04 08:05:29;;;;;;;;;;;19.20;99.90;;;;;;5079881;28;20315;-69
2022/08/04 08:07:56;;;;;;;;;;;19.20;99.90;;;;;;5081846;28;19919;-68
2022/08/04 08:10:22;;;;;;;;;;;19.40;99.90;;;;;;5057277;28;19920;-68
2022/08/04 08:12:50;;;;;;;;;;;19.60;99.90;;;;;;5061858;28;19923;-68
2022/08/04 08:15:16;;;;;;;;;;;19.70;99.90;;;;;;5083404;28;19917;-67
2022/08/04 08:17:42;;;;;;;;;;;19.80;99.90;;;;;;5082101;28;20465;-67
2022/08/04 08:20:08;;;;;;;;;;;19.90;99.90;;;;;;5077100;28;19920;-68
2022/08/04 08:22:37;;;;;;;;;;;20.00;99.90;;;;;;5064087;28;20396;-68
2022/08/04 08:25:06;;;;;;;;;;;20.20;99.90;;;;;;5085429;28;20275;-67
2022/08/04 08:27:32;;;;;;;;;;;20.30;99.90;;;;;;5075171;28;19919;-68
2022/08/04 08:29:58;;;;;;;;;;;20.40;99.90;;;;;;5082567;28;19916;-66
2022/08/04 08:32:24;;;;;;;;;;;20.60;99.90;;;;;;5065503;28;19965;-67
2022/08/04 08:34:50;;;;;;;;;;;20.60;99.90;;;;;;5083615;28;20314;-67
2022/08/04 08:37:18;;;;;;;;;;;20.60;99.90;;;;;;5107305;28;19919;-67
2022/08/04 08:39:47;;;;;;;;;;;20.50;99.90;;;;;;5111025;28;19912;-68
2022/08/04 08:42:27;;;;;;;;;;;20.50;99.90;;;;;;5096785;28;20292;-67
2022/08/04 08:45:09;;;;;;;;;;;20.70;99.90;;;;;;5114972;28;19937;-68
2022/08/04 08:47:39;;;;;;;;;;;20.70;99.90;;;;;;5096285;28;19945;-66
2022/08/04 08:50:40;;;;;;;;;;;20.50;99.90;;;;;;5104325;28;20347;-68
2022/08/04 08:53:18;;;;;;;;;;;20.30;99.90;;;;;;5019596;28;19913;-67
2022/08/04 08:55:50;;;;;;;;;;;20.10;99.90;;;;;;5094391;28;19920;-67
2022/08/04 08:58:28;;;;;;;;;;;20.30;99.90;;;;;;5080558;28;20281;-68
2022/08/04 09:01:06;;;;;;;;;;;20.30;99.90;;;;;;5080456;28;20287;-68
2022/08/04 09:03:40;;;;;;;;;;;20.30;99.90;;;;;;5093956;28;19923;-67
2022/08/04 09:06:25;;;;;;;;;;;20.50;99.90;;;;;;5096950;28;19916;-69
2022/08/04 09:09:05;;;;;;;;;;;20.60;99.90;;;;;;5100209;28;20306;-68
2022/08/04 09:11:38;;;;;;;;;;;20.50;99.90;;;;;;5080499;28;20809;-68
2022/08/04 09:14:18;;;;;;;;;;;20.40;99.90;;;;;;5101982;28;20064;-67
2022/08/04 09:16:52;;;;;;;;;;;20.40;99.90;;;;;;5104835;28;20441;-67
2022/08/04 09:19:44;;;;;;;;;;;20.40;99.90;;;;;;5096483;28;19923;-68
2022/08/04 09:22:21;;;;;;;;;;;20.80;99.90;;;;;;5101059;28;20014;-68
2022/08/04 09:24:57;;;;;;;;;;;21.00;99.90;;;;;;5093998;28;19948;-69
2022/08/04 09:27:41;;;;;;;;;;;21.00;99.90;;;;;;5093324;28;19954;-67
2022/08/04 09:30:09;;;;;;;;;;;21.10;99.90;;;;;;5100042;28;19924;-67
2022/08/04 09:32:37;;;;;;;;;;;21.30;99.90;;;;;;5095755;28;20867;-68
2022/08/04 09:35:18;;;;;;;;;;;21.30;99.90;;;;;;5099135;28;19928;-67
2022/08/04 09:37:53;;;;;;;;;;;21.20;99.90;;;;;;5095428;28;19965;-68
2022/08/04 09:40:44;;;;;;;;;;;21.10;99.90;;;;;;5098383;28;19991;-68
2022/08/04 09:43:16;;;;;;;;;;;21.00;99.90;;;;;;5093446;28;19986;-68
2022/08/04 09:45:49;;;;;;;;;;;21.00;99.90;;;;;;5082410;28;19919;-70
2022/08/04 09:48:24;;;;;;;;;;;21.00;99.90;;;;;;5093680;28;19959;-68
2022/08/04 09:50:53;;;;;;;;;;;21.10;99.90;;;;;;5091414;28;19920;-69
2022/08/04 09:53:38;;;;;;;;;;;21.00;99.90;;;;;;5094588;28;19934;-68
2022/08/04 09:56:17;;;;;;;;;;;21.00;99.90;;;;;;5097729;28;20010;-69
2022/08/04 09:58:48;;;;;;;;;;;21.30;99.90;;;;;;5091051;28;19966;-68
2022/08/04 10:01:19;;;;;;;;;;;21.60;97.30;;;;;;5094286;28;19911;-69
2022/08/04 10:03:48;;;;;;;;;;;21.70;94.70;;;;;;5092128;28;19970;-68
2022/08/04 10:06:20;;;;;;;;;;;21.50;93.00;;;;;;5091193;28;19923;-68
2022/08/04 10:08:54;;;;;;;;;;;21.40;92.30;;;;;;5095611;28;19955;-69
2022/08/04 10:11:23;;;;;;;;;;;21.20;90.90;;;;;;5092176;28;19958;-69
2022/08/04 10:14:17;;;;;;;;;;;21.10;93.00;;;;;;5091588;28;19928;-67
2022/08/04 10:16:46;;;;;;;;;;;21.10;93.00;;;;;;5011920;28;20424;-68
2022/08/04 10:19:17;;;;;;;;;;;21.10;92.80;;;;;;5070347;28;19921;-68
2022/08/04 10:21:52;;;;;;;;;;;21.10;93.90;;;;;;5089789;28;19935;-68
2022/08/04 10:24:28;;;;;;;;;;;21.30;92.90;;;;;;5090199;28;20286;-69
2022/08/04 10:27:14;;;;;;;;;;;21.50;91.80;;;;;;5090091;28;20296;-68
2022/08/04 10:29:42;;;;;;;;;;;21.80;91.40;;;;;;5092767;28;19965;-68
2022/08/04 10:32:11;;;;;;;;;;;22.00;87.30;;;;;;5097586;28;19931;-68
2022/08/04 10:34:43;;;;;;;;;;;21.90;83.70;;;;;;5080032;28;19920;-68
2022/08/04 10:37:20;;;;;;;;;;;21.90;86.00;;;;;;5094691;28;19916;-67
2022/08/04 10:42:41;;;;;;;;;;;21.80;88.20;;;;;;5096454;28;20500;-68
2022/08/04 10:45:18;;;;;;;;;;;21.80;88.60;;;;;;5073131;28;19916;-70
2022/08/04 10:47:53;;;;;;;;;;;22.10;84.70;;;;;;5070519;28;19912;-67
2022/08/04 10:50:21;;;;;;;;;;;22.30;82.80;;;;;;5094373;28;19978;-68
2022/08/04 10:53:04;;;;;;;;;;;22.30;78.80;;;;;;5093934;28;19919;-69
2022/08/04 10:55:34;;;;;;;;;;;22.40;80.70;;;;;;5093554;28;19928;-68
2022/08/04 10:58:08;;;;;;;;;;;22.00;80.50;;;;;;5097428;28;19919;-68
2022/08/04 11:00:35;;;;;;;;;;;21.70;80.00;;;;;;5095675;28;20014;-69
2022/08/04 11:03:05;;;;;;;;;;;21.50;79.70;;;;;;5091757;28;19923;-67
2022/08/04 11:05:46;;;;;;;;;;;21.50;80.80;;;;;;5090929;28;19912;-67
2022/08/04 11:08:19;;;;;;;;;;;21.50;78.70;;;;;;5093311;28;19931;-67
2022/08/04 11:10:51;;;;;;;;;;;21.50;78.40;;;;;;5094270;28;19911;-68
2022/08/04 11:13:16;;;;;;;;;;;21.30;77.50;;;;;;5098498;28;20354;-66
2022/08/04 11:15:49;;;;;;;;;;;21.20;74.40;;;;;;5100456;28;19981;-67
2022/08/04 11:18:27;;;;;;;;;;;21.20;73.90;;;;;;5075862;28;20036;-66
2022/08/04 11:21:08;;;;;;;;;;;21.40;72.90;;;;;;5103718;28;20008;-67
2022/08/04 11:23:35;;;;;;;;;;;21.50;72.70;;;;;;5092177;28;20278;-67
2022/08/04 11:26:12;;;;;;;;;;;21.60;71.40;;;;;;5092464;28;19920;-67
2022/08/04 11:28:47;;;;;;;;;;;21.60;71.00;;;;;;5096719;28;19916;-67
2022/08/04 11:31:18;;;;;;;;;;;21.50;71.30;;;;;;5094775;28;20238;-66
2022/08/04 11:34:02;;;;;;;;;;;21.50;68.90;;;;;;5091824;28;19916;-66
2022/08/04 11:36:28;;;;;;;;;;;21.50;67.10;;;;;;5092187;28;19940;-67
2022/08/04 11:39:05;;;;;;;;;;;21.70;64.10;;;;;;5094972;28;19934;-67
2022/08/04 11:41:57;;;;;;;;;;;21.80;66.50;;;;;;5071616;28;19923;-68
2022/08/04 11:44:27;;;;;;;;;;;21.70;66.40;;;;;;5086921;28;20366;-67
2022/08/04 11:46:55;;;;;;;;;;;21.80;67.40;;;;;;5091025;28;20006;-67
2022/08/04 11:49:33;;;;;;;;;;;21.80;66.50;;;;;;5088479;28;19936;-67
2022/08/04 11:52:01;;;;;;;;;;;21.90;65.40;;;;;;5090077;28;20365;-66
2022/08/04 11:54:27;;;;;;;;;;;21.90;66.30;;;;;;5090395;28;20442;-66
2022/08/04 11:56:53;;;;;;;;;;;22.10;67.80;;;;;;5094500;28;19916;-66
2022/08/04 11:59:21;;;;;;;;;;;22.20;63.40;;;;;;5090501;28;19919;-68
2022/08/04 12:01:57;;;;;;;;;;;21.80;64.40;;;;;;5100863;28;19912;-67
2022/08/04 12:04:41;;;;;;;;;;;21.60;64.50;;;;;;5068284;28;19920;-67
2022/08/04 12:07:16;;;;;;;;;;;21.60;63.50;;;;;;5091396;28;19952;-68
2022/08/04 12:10:00;;;;;;;;;;;21.60;62.90;;;;;;5071041;28;20389;-67
2022/08/04 12:12:42;;;;;;;;;;;21.70;62.80;;;;;;5079662;28;20463;-68
2022/08/04 12:15:12;;;;;;;;;;;21.60;62.20;;;;;;5095704;28;19924;-67
2022/08/04 12:17:44;;;;;;;;;;;21.60;63.10;;;;;;5097371;28;19989;-67
2022/08/04 12:20:15;;;;;;;;;;;21.70;62.70;;;;;;5093225;28;20292;-69
2022/08/04 12:22:44;;;;;;;;;;;21.70;62.70;;;;;;5097630;28;19960;-67
2022/08/04 12:25:13;;;;;;;;;;;21.80;61.50;;;;;;5079160;28;19912;-68
2022/08/04 12:27:59;;;;;;;;;;;21.90;61.80;;;;;;5094968;28;19916;-67
2022/08/04 12:30:29;;;;;;;;;;;21.90;62.30;;;;;;5095673;28;20401;-66
2022/08/04 12:33:00;;;;;;;;;;;22.20;62.10;;;;;;5078195;28;20016;-66
2022/08/04 12:35:40;;;;;;;;;;;22.50;62.00;;;;;;5093183;28;20290;-67
2022/08/04 12:38:06;;;;;;;;;;;22.80;61.30;;;;;;5095182;28;19916;-68
2022/08/04 12:40:45;;;;;;;;;;;22.60;60.00;;;;;;5100045;28;20233;-65
2022/08/04 12:43:17;;;;;;;;;;;22.40;60.60;;;;;;5092915;28;19950;-67
2022/08/04 12:45:45;;;;;;;;;;;22.40;61.70;;;;;;5092722;28;19912;-67
2022/08/04 12:48:11;;;;;;;;;;;22.40;62.20;;;;;;5071802;28;20286;-68
2022/08/04 12:50:37;;;;;;;;;;;22.50;62.10;;;;;;5094944;28;19916;-67
2022/08/04 12:53:09;;;;;;;;;;;22.50;63.40;;;;;;5093459;28;19973;-67
2022/08/04 12:55:35;;;;;;;;;;;22.50;62.80;;;;;;5097262;28;19916;-68
2022/08/04 12:58:14;;;;;;;;;;;22.50;63.30;;;;;;5093778;28;19920;-67
2022/08/04 13:00:40;;;;;;;;;;;22.80;61.30;;;;;;5093892;28;19920;-68
2022/08/04 13:03:07;;;;;;;;;;;22.90;61.60;;;;;;5092113;28;19912;-68
2022/08/04 13:05:33;;;;;;;;;;;23.00;60.80;;;;;;5093439;28;19912;-67
2022/08/04 13:08:00;;;;;;;;;;;22.90;60.20;;;;;;5093435;28;20339;-68
2022/08/04 13:10:25;;;;;;;;;;;22.80;60.30;;;;;;5074123;28;20010;-68
2022/08/04 13:12:58;;;;;;;;;;;22.80;59.50;;;;;;5088543;28;20878;-68
2022/08/04 13:15:25;;;;;;;;;;;22.90;58.30;;;;;;5097379;28;19951;-69
2022/08/04 13:17:59;;;;;;;;;;;22.80;57.70;;;;;;5090556;28;19920;-68
2022/08/04 13:20:35;;;;;;;;;;;22.80;58.30;;;;;;5082366;28;20468;-68
2022/08/04 13:23:03;;;;;;;;;;;23.20;57.50;;;;;;5092230;28;20018;-67
2022/08/04 13:25:29;;;;;;;;;;;23.20;56.20;;;;;;5089365;28;20559;-68
2022/08/04 13:27:55;;;;;;;;;;;23.00;55.90;;;;;;5096487;28;20287;-69
2022/08/04 13:30:21;;;;;;;;;;;23.20;55.90;;;;;;5103731;28;19919;-68
2022/08/04 13:32:51;;;;;;;;;;;23.20;56.10;;;;;;5099956;28;19912;-68
2022/08/04 13:35:16;;;;;;;;;;;23.10;55.60;;;;;;5105902;28;20386;-68
2022/08/04 13:37:42;;;;;;;;;;;23.00;56.20;;;;;;5092504;28;19992;-68
2022/08/04 13:40:10;;;;;;;;;;;23.20;56.00;;;;;;5094252;28;20399;-68
2022/08/04 13:42:37;;;;;;;;;;;23.40;55.80;;;;;;5092490;28;20339;-68
2022/08/04 13:45:04;;;;;;;;;;;23.40;55.10;;;;;;5099203;28;19919;-67
2022/08/04 13:47:32;;;;;;;;;;;23.30;54.90;;;;;;5103310;28;19912;-67
2022/08/04 13:50:12;;;;;;;;;;;23.30;55.20;;;;;;5095824;28;20325;-67
2022/08/04 13:52:39;;;;;;;;;;;23.50;54.40;;;;;;5100320;28;20335;-67
2022/08/04 13:55:05;;;;;;;;;;;23.50;54.90;;;;;;5101877;28;19920;-68
2022/08/04 13:57:42;;;;;;;;;;;23.40;54.80;;;;;;5092451;28;19931;-69
2022/08/04 14:00:08;;;;;;;;;;;23.50;54.20;;;;;;5090558;28;20047;-69
2022/08/04 14:02:44;;;;;;;;;;;23.60;54.10;;;;;;5094380;28;20273;-66
2022/08/04 14:05:15;;;;;;;;;;;23.60;53.90;;;;;;5090680;28;20431;-67
2022/08/04 14:07:45;;;;;;;;;;;23.60;53.00;;;;;;5091973;28;19912;-67
2022/08/04 14:10:11;;;;;;;;;;;23.20;54.70;;;;;;5077773;28;20366;-67
2022/08/04 14:12:44;;;;;;;;;;;23.10;54.70;;;;;;5101142;28;19912;-68
2022/08/04 14:15:28;;;;;;;;;;;23.10;54.10;;;;;;5094636;28;19967;-67
2022/08/04 14:17:53;;;;;;;;;;;23.20;53.50;;;;;;5081125;28;19920;-66
2022/08/04 14:20:19;;;;;;;;;;;23.20;53.00;;;;;;5091465;28;19939;-68
2022/08/04 14:22:44;;;;;;;;;;;23.00;54.00;;;;;;5078734;28;19930;-68
2022/08/04 14:25:14;;;;;;;;;;;22.80;54.80;;;;;;5092899;28;19920;-69
2022/08/04 14:27:42;;;;;;;;;;;22.80;54.90;;;;;;5094955;28;20003;-68
2022/08/04 14:30:19;;;;;;;;;;;22.70;55.00;;;;;;5091977;28;19999;-68
2022/08/04 14:33:08;;;;;;;;;;;22.70;55.10;;;;;;5090307;28;20316;-68
2022/08/04 14:35:34;;;;;;;;;;;23.00;54.30;;;;;;5077413;28;19947;-67
2022/08/04 14:38:06;;;;;;;;;;;23.10;54.80;;;;;;5088371;28;19920;-68
2022/08/04 14:40:33;;;;;;;;;;;23.10;53.60;;;;;;5079312;28;20025;-65
2022/08/04 14:42:59;;;;;;;;;;;23.20;53.20;;;;;;5091553;28;20338;-66
2022/08/04 14:45:30;;;;;;;;;;;23.30;52.80;;;;;;5094858;28;19920;-66
2022/08/04 14:47:55;;;;;;;;;;;23.60;53.50;;;;;;5084045;28;19924;-67